createdAt,value
2022-09-10T05:35:12.996Z,32.30
2022-09-10T05:37:43.772Z,32.10
2022-09-10T05:40:17.146Z,32.00
2022-09-10T05:42:47.863Z,31.80
2022-09-10T05:45:20.143Z,31.80
2022-09-10T05:47:51.583Z,31.70
2022-09-10T05:50:23.046Z,31.50
2022-09-10T05:52:54.243Z,31.50
2022-09-10T05:55:25.129Z,31.40
2022-09-10T05:57:57.397Z,31.40
2022-09-10T06:00:28.237Z,31.30
2022-09-10T06:02:59.360Z,31.20
2022-09-10T06:05:30.799Z,31.20
2022-09-10T06:08:05.402Z,31.10
2022-09-10T06:10:36.741Z,31.20
2022-09-10T06:13:08.711Z,31.10
2022-09-10T06:15:41.168Z,31.20
2022-09-10T06:18:11.897Z,31.20
2022-09-10T06:20:42.495Z,31.20
2022-09-10T06:23:13.367Z,31.30
2022-09-10T06:25:44.656Z,31.40
2022-09-10T06:28:16.181Z,31.50
2022-09-10T06:30:46.910Z,31.50
2022-09-10T06:33:18.020Z,31.50
2022-09-10T06:35:53.613Z,31.40
2022-09-10T06:38:24.130Z,31.40
2022-09-10T06:40:56.884Z,31.30
2022-09-10T06:43:28.207Z,31.20
2022-09-10T06:45:59.435Z,31.20
2022-09-10T06:48:38.660Z,31.10
2022-09-10T06:51:03.471Z,31.10
2022-09-10T06:53:34.895Z,31.10
2022-09-10T06:56:07.099Z,31.10
2022-09-10T06:58:38.884Z,31.10
2022-09-10T07:01:13.630Z,31.20
2022-09-10T07:03:45.939Z,31.20
2022-09-10T07:06:18.746Z,31.20
2022-09-10T07:08:49.455Z,31.20
2022-09-10T07:11:20.343Z,31.20
2022-09-10T07:13:53.405Z,31.20
2022-09-10T07:16:26.049Z,31.20
2022-09-10T07:18:59.320Z,31.20
2022-09-10T07:21:31.523Z,31.10
2022-09-10T07:24:03.534Z,31.10
2022-09-10T07:26:34.639Z,31.00
2022-09-10T07:29:05.840Z,30.90
2022-09-10T07:31:39.554Z,30.90
2022-09-10T07:34:10.275Z,30.80
2022-09-10T07:36:40.989Z,30.70
2022-09-10T07:39:12.796Z,30.70
2022-09-10T07:41:44.226Z,30.60
2022-09-10T07:44:15.263Z,30.60
2022-09-10T07:46:47.572Z,30.50
2022-09-10T07:49:18.565Z,30.50
2022-09-10T07:51:49.622Z,30.40
2022-09-10T07:54:20.789Z,30.30
2022-09-10T07:56:51.989Z,30.30
2022-09-10T07:59:22.732Z,30.20
2022-09-10T08:01:53.801Z,30.10
2022-09-10T08:04:24.867Z,30.10
2022-09-10T08:06:55.967Z,30.10
2022-09-10T08:09:27.492Z,30.10
2022-09-10T08:11:58.457Z,30.00
2022-09-10T08:14:29.271Z,30.00
2022-09-10T08:17:00.083Z,29.90
2022-09-10T08:19:31.603Z,29.80
2022-09-10T08:22:02.582Z,29.80
2022-09-10T08:24:33.365Z,29.70
2022-09-10T08:27:04.826Z,29.60
2022-09-10T08:29:36.264Z,29.50
2022-09-10T08:32:07.425Z,29.20
2022-09-10T08:34:39.066Z,29.00
2022-09-10T08:37:10.246Z,28.70
2022-09-10T08:39:40.918Z,28.40
2022-09-10T08:42:14.748Z,28.10
2022-09-10T08:44:49.887Z,27.80
2022-09-10T08:47:23.344Z,27.70
2022-09-10T08:49:56.691Z,27.50
2022-09-10T08:52:30.347Z,27.40
2022-09-10T08:55:03.519Z,27.30
2022-09-10T08:57:36.920Z,27.30
2022-09-10T09:00:09.993Z,27.20
2022-09-10T09:02:49.325Z,27.20
2022-09-10T09:05:16.118Z,27.20
2022-09-10T09:07:48.233Z,27.20
2022-09-10T09:10:21.433Z,27.20
2022-09-10T09:12:54.899Z,27.20
2022-09-10T09:15:28.340Z,27.20
2022-09-10T09:18:01.675Z,27.20
2022-09-10T09:20:34.572Z,27.20
2022-09-10T09:23:06.584Z,27.20
2022-09-10T09:25:39.921Z,27.20
2022-09-10T09:28:13.078Z,27.20
2022-09-10T09:30:47.403Z,27.20
2022-09-10T09:33:20.670Z,27.30
2022-09-10T09:35:54.754Z,27.30
2022-09-10T09:38:28.349Z,27.30
2022-09-10T09:41:01.748Z,27.30
2022-09-10T09:43:34.991Z,27.30
2022-09-10T09:46:07.778Z,27.20
2022-09-10T09:48:41.423Z,27.20
2022-09-10T09:51:14.561Z,27.10
2022-09-10T09:53:48.402Z,27.20
2022-09-10T09:56:20.821Z,27.20
2022-09-10T09:58:53.417Z,27.20
2022-09-10T10:01:26.889Z,27.20
2022-09-10T10:04:00.637Z,27.20
2022-09-10T10:06:34.021Z,27.20
2022-09-10T10:09:07.365Z,27.20
2022-09-10T10:11:40.505Z,27.20
2022-09-10T10:14:13.899Z,27.10
2022-09-10T10:16:45.106Z,27.20
2022-09-10T10:19:18.435Z,27.20
2022-09-10T10:21:49.034Z,27.20
2022-09-10T10:24:22.540Z,27.20
2022-09-10T10:26:53.570Z,27.10
2022-09-10T10:29:24.492Z,27.10
2022-09-10T10:31:57.326Z,27.10
2022-09-10T10:34:29.654Z,27.10
2022-09-10T10:37:01.199Z,27.10
2022-09-10T10:39:34.477Z,27.10
2022-09-10T10:42:06.189Z,27.10
2022-09-10T10:44:37.846Z,27.00
2022-09-10T10:47:10.748Z,26.90
2022-09-10T10:49:43.991Z,26.90
2022-09-10T10:52:16.635Z,26.80
2022-09-10T10:54:49.796Z,26.70
2022-09-10T10:57:23.047Z,26.60
2022-09-10T10:59:56.248Z,26.50
2022-09-10T11:02:27.859Z,26.50
2022-09-10T11:05:01.229Z,26.50
2022-09-10T11:07:34.485Z,26.50
2022-09-10T11:10:08.141Z,26.50
2022-09-10T11:12:41.299Z,26.50
2022-09-10T11:15:14.416Z,26.40
2022-09-10T11:17:49.420Z,26.40
2022-09-10T11:20:28.837Z,26.40
2022-09-10T11:22:58.520Z,26.50
2022-09-10T11:25:30.550Z,26.50
2022-09-10T11:28:04.960Z,26.50
2022-09-10T11:30:37.463Z,26.60
2022-09-10T11:33:10.921Z,26.60
2022-09-10T11:35:44.152Z,26.60
2022-09-10T11:38:19.060Z,26.60
2022-09-10T11:40:53.787Z,26.60
2022-09-10T11:43:28.314Z,26.60
2022-09-10T11:46:01.483Z,26.60
2022-09-10T11:48:35.111Z,26.60
2022-09-10T11:51:08.802Z,26.60
2022-09-10T11:53:39.816Z,26.70
2022-09-10T11:56:11.559Z,26.70
2022-09-10T11:58:44.686Z,26.70
2022-09-10T12:01:18.040Z,26.70
2022-09-10T12:03:51.622Z,26.70
2022-09-10T12:06:25.196Z,26.60
2022-09-10T12:08:58.459Z,26.60
2022-09-10T12:11:30.679Z,26.60
2022-09-10T12:14:01.859Z,26.60
2022-09-10T12:16:33.881Z,26.70
2022-09-10T12:19:08.327Z,26.70
2022-09-10T12:21:44.414Z,26.70
2022-09-10T12:24:17.434Z,26.70
2022-09-10T12:26:48.278Z,26.70
2022-09-10T12:29:21.566Z,26.70
2022-09-10T12:31:56.143Z,26.70
2022-09-10T12:34:41.347Z,26.70
2022-09-10T12:37:11.528Z,26.60
2022-09-10T12:39:44.039Z,26.60
2022-09-10T12:42:24.888Z,26.60
2022-09-10T12:44:55.489Z,26.50
2022-09-10T12:47:33.736Z,26.50
2022-09-10T12:50:13.408Z,26.50
2022-09-10T12:52:48.517Z,26.50
2022-09-10T12:55:24.774Z,26.40
2022-09-10T12:57:59.453Z,26.40
2022-09-10T13:00:33.580Z,26.40
2022-09-10T13:03:09.190Z,26.50
2022-09-10T13:05:54.089Z,26.50
2022-09-10T13:08:42.280Z,26.50
2022-09-10T13:11:14.220Z,26.50
2022-09-10T13:16:34.263Z,26.50
2022-09-10T13:19:10.291Z,26.50
2022-09-10T13:21:41.245Z,26.50
2022-09-10T13:24:17.659Z,26.50
2022-09-10T13:27:03.087Z,26.50
2022-09-10T13:29:36.658Z,26.40
2022-09-10T13:32:12.318Z,26.40
2022-09-10T13:34:44.459Z,26.40
2022-09-10T13:37:53.363Z,26.40
2022-09-10T13:40:13.965Z,26.40
2022-09-10T13:42:49.221Z,26.50
2022-09-10T13:48:18.883Z,26.50
2022-09-10T13:51:02.289Z,26.50
2022-09-10T13:53:30.327Z,26.50
2022-09-10T13:56:03.675Z,26.50
2022-09-10T13:58:36.976Z,26.50
2022-09-10T14:03:59.596Z,26.50
2022-09-10T14:06:31.695Z,26.60
2022-09-10T14:09:06.333Z,26.60
2022-09-10T14:14:40.554Z,26.60
2022-09-10T14:17:47.301Z,26.60
2022-09-10T14:19:50.714Z,26.50
2022-09-10T14:22:28.002Z,26.50
2022-09-10T14:25:01.100Z,26.40
2022-09-10T14:27:34.541Z,26.40
2022-09-10T14:30:09.111Z,26.40
2022-09-10T14:32:41.143Z,26.40
2022-09-10T14:35:14.407Z,26.40
2022-09-10T14:37:45.297Z,26.40
2022-09-10T14:40:18.960Z,26.40
2022-09-10T14:42:51.910Z,26.40
2022-09-10T14:45:26.309Z,26.40
2022-09-10T14:47:57.014Z,26.40
2022-09-10T14:50:31.565Z,26.50
2022-09-10T14:53:02.998Z,26.40
2022-09-10T14:55:35.313Z,26.50
2022-09-10T14:58:07.864Z,26.50
2022-09-10T15:00:38.610Z,26.50
2022-09-10T15:03:11.167Z,26.50
2022-09-10T15:05:41.852Z,26.50
2022-09-10T15:08:12.740Z,26.50
2022-09-10T15:10:46.339Z,26.50
2022-09-10T15:13:19.999Z,26.50
2022-09-10T15:15:55.213Z,26.50
2022-09-10T15:18:26.639Z,26.50
2022-09-10T15:20:57.670Z,26.50
2022-09-10T15:23:29.531Z,26.50
2022-09-10T15:26:02.169Z,26.50
2022-09-10T15:28:33.133Z,26.40
2022-09-10T15:31:03.829Z,26.40
2022-09-10T15:33:34.721Z,26.40
2022-09-10T15:36:06.204Z,26.40
2022-09-10T15:38:37.215Z,26.40
2022-09-10T15:41:12.509Z,26.40
2022-09-10T15:43:45.167Z,26.30
2022-09-10T15:46:19.862Z,26.40
2022-09-10T15:48:51.172Z,26.30
2022-09-10T15:51:24.723Z,26.30
2022-09-10T15:53:57.255Z,26.30
2022-09-10T15:56:29.040Z,26.20
2022-09-10T15:59:01.230Z,26.20
2022-09-10T16:01:32.193Z,26.30
2022-09-10T16:04:05.116Z,26.30
2022-09-10T16:06:38.060Z,26.30
2022-09-10T16:09:11.482Z,26.30
2022-09-10T16:11:44.295Z,26.30
2022-09-10T16:14:18.439Z,26.30
2022-09-10T16:16:49.879Z,26.30
2022-09-10T16:19:22.129Z,26.30
2022-09-10T16:21:54.229Z,26.40
2022-09-10T16:24:24.953Z,26.30
2022-09-10T16:26:55.700Z,26.30
2022-09-10T16:29:26.631Z,26.30
2022-09-10T16:31:57.847Z,26.20
2022-09-10T16:34:28.802Z,26.20
2022-09-10T16:36:59.741Z,26.20
2022-09-10T16:39:30.782Z,26.20
2022-09-10T16:42:01.619Z,26.20
2022-09-10T16:44:34.680Z,26.20
2022-09-10T16:47:05.037Z,26.20
2022-09-10T16:49:35.922Z,26.20
2022-09-10T16:52:06.620Z,26.20
2022-09-10T16:54:38.771Z,26.20
2022-09-10T16:57:09.684Z,26.20
2022-09-10T16:59:41.878Z,26.20
2022-09-10T17:02:13.331Z,26.10
2022-09-10T17:04:43.998Z,26.20
2022-09-10T17:07:14.957Z,26.10
2022-09-10T17:09:48.595Z,26.10
2022-09-10T17:12:19.441Z,26.20
2022-09-10T17:14:50.937Z,26.20
2022-09-10T17:17:21.786Z,26.20
2022-09-10T17:19:52.549Z,26.20
2022-09-10T17:22:24.030Z,26.10
2022-09-10T17:24:55.264Z,26.10
2022-09-10T17:27:26.100Z,26.20
2022-09-10T17:29:56.734Z,26.10
2022-09-10T17:32:27.977Z,26.10
2022-09-10T17:34:58.721Z,26.10
2022-09-10T17:37:29.907Z,26.20
2022-09-10T17:40:00.663Z,26.20
2022-09-10T17:42:31.536Z,26.20
2022-09-10T17:45:03.752Z,26.20
2022-09-10T17:47:35.482Z,26.10
2022-09-10T17:50:06.896Z,26.10
2022-09-10T17:52:37.678Z,26.10
2022-09-10T17:55:08.700Z,26.10
2022-09-10T17:57:39.554Z,26.10
2022-09-10T18:00:11.896Z,26.10
2022-09-10T18:02:42.852Z,26.10
2022-09-10T18:05:13.586Z,26.10
2022-09-10T18:07:45.857Z,26.10
2022-09-10T18:10:17.450Z,26.10
2022-09-10T18:12:48.301Z,26.20
2022-09-10T18:15:20.507Z,26.20
2022-09-10T18:17:51.240Z,26.20
2022-09-10T18:20:22.182Z,26.20
2022-09-10T18:22:53.257Z,26.20
2022-09-10T18:25:24.879Z,26.20
2022-09-10T18:27:56.195Z,26.20
2022-09-10T18:30:27.703Z,26.20
2022-09-10T18:32:59.071Z,26.20
2022-09-10T18:35:29.724Z,26.20
2022-09-10T18:38:00.587Z,26.20
2022-09-10T18:40:40.353Z,26.10
2022-09-10T18:43:12.113Z,26.10
2022-09-10T18:45:43.851Z,26.00
2022-09-10T18:48:14.648Z,26.00
2022-09-10T18:50:45.427Z,26.00
2022-09-10T18:53:16.882Z,26.00
2022-09-10T18:55:49.022Z,25.90
2022-09-10T18:58:21.219Z,25.90
2022-09-10T19:00:54.363Z,25.90
2022-09-10T19:03:24.619Z,25.90
2022-09-10T19:05:55.232Z,25.90
2022-09-10T19:08:26.191Z,25.90
2022-09-10T19:11:00.070Z,25.80
2022-09-10T19:13:31.771Z,25.80
2022-09-10T19:16:05.573Z,25.80
2022-09-10T19:18:37.667Z,25.70
2022-09-10T19:21:09.797Z,25.70
2022-09-10T19:23:41.225Z,25.80
2022-09-10T19:26:13.368Z,25.70
2022-09-10T19:28:44.664Z,25.80
2022-09-10T19:31:18.002Z,25.80
2022-09-10T19:33:50.276Z,25.80
2022-09-10T19:36:21.066Z,25.80
2022-09-10T19:38:52.205Z,25.80
2022-09-10T19:41:23.969Z,25.70
2022-09-10T19:43:56.563Z,25.70
2022-09-10T19:46:29.835Z,25.70
2022-09-10T19:49:02.702Z,25.70
2022-09-10T19:51:35.739Z,25.70
2022-09-10T19:54:08.014Z,25.70
2022-09-10T19:56:43.974Z,25.70
2022-09-10T19:59:15.896Z,25.70
2022-09-10T20:01:47.129Z,25.70
2022-09-10T20:04:18.270Z,25.70
2022-09-10T20:06:50.458Z,25.80
2022-09-10T20:09:21.496Z,25.80
2022-09-10T20:11:52.573Z,25.80
2022-09-10T20:14:23.271Z,25.80
2022-09-10T20:16:55.578Z,25.80
2022-09-10T20:19:26.582Z,25.80
2022-09-10T20:21:57.234Z,25.80
2022-09-10T20:24:29.519Z,25.80
2022-09-10T20:27:00.371Z,25.80
2022-09-10T20:29:32.699Z,25.90
2022-09-10T20:32:03.741Z,25.80
2022-09-10T20:34:36.265Z,25.90
2022-09-10T20:37:07.154Z,25.90
2022-09-10T20:39:40.178Z,25.90
2022-09-10T20:42:12.568Z,25.90
2022-09-10T20:44:43.471Z,25.90
2022-09-10T20:47:15.117Z,26.00
2022-09-10T20:49:45.955Z,25.90
2022-09-10T20:52:16.781Z,25.90
2022-09-10T20:54:49.562Z,25.90
2022-09-10T20:57:21.633Z,26.00
2022-09-10T20:59:53.520Z,26.00
2022-09-10T21:02:24.811Z,26.00
2022-09-10T21:04:55.873Z,26.00
2022-09-10T21:07:26.813Z,26.00
2022-09-10T21:09:58.060Z,26.00
2022-09-10T21:12:29.102Z,26.00
2022-09-10T21:14:59.826Z,26.00
2022-09-10T21:17:32.248Z,26.00
2022-09-10T21:20:04.178Z,26.00
2022-09-10T21:22:34.822Z,25.90
2022-09-10T21:25:05.947Z,25.90
2022-09-10T21:27:36.824Z,25.90
2022-09-10T21:30:08.440Z,25.90
2022-09-10T21:32:39.201Z,25.90
2022-09-10T21:35:10.487Z,25.90
2022-09-10T21:37:41.564Z,25.90
2022-09-10T21:40:12.948Z,25.90
2022-09-10T21:42:47.439Z,25.90
2022-09-10T21:45:20.075Z,25.90
2022-09-10T21:47:52.799Z,25.90
2022-09-10T21:50:23.628Z,25.90
2022-09-10T21:52:54.472Z,25.90
2022-09-10T21:55:25.317Z,25.90
2022-09-10T21:57:56.251Z,25.90
2022-09-10T22:00:28.414Z,25.90
2022-09-10T22:02:59.277Z,25.90
2022-09-10T22:05:30.071Z,25.90
2022-09-10T22:08:00.820Z,25.90
2022-09-10T22:10:33.093Z,25.90
2022-09-10T22:13:04.137Z,25.90
2022-09-10T22:15:36.115Z,25.90
2022-09-10T22:18:06.817Z,25.90
2022-09-10T22:20:39.172Z,25.90
2022-09-10T22:23:09.776Z,25.90
2022-09-10T22:25:40.436Z,25.80
2022-09-10T22:28:11.354Z,25.80
2022-09-10T22:30:43.545Z,25.90
2022-09-10T22:33:15.644Z,25.90
2022-09-10T22:35:47.182Z,25.90
2022-09-10T22:38:19.651Z,25.90
2022-09-10T22:40:49.884Z,25.90
2022-09-10T22:43:20.597Z,25.80
2022-09-10T22:45:51.207Z,25.80
2022-09-10T22:48:25.066Z,25.80
2022-09-10T22:50:56.544Z,25.90
2022-09-10T22:53:27.212Z,25.80
2022-09-10T22:55:59.397Z,25.80
2022-09-10T22:58:31.385Z,25.80
2022-09-10T23:01:06.487Z,25.80
2022-09-10T23:03:36.865Z,25.80
2022-09-10T23:06:08.368Z,25.70
2022-09-10T23:08:40.723Z,25.70
2022-09-10T23:11:13.217Z,25.70
2022-09-10T23:13:49.562Z,25.60
2022-09-10T23:16:19.808Z,25.60
2022-09-10T23:18:52.845Z,25.60
2022-09-10T23:21:28.570Z,25.60
2022-09-10T23:24:01.254Z,25.60
2022-09-10T23:26:33.186Z,25.60
2022-09-10T23:29:06.202Z,25.50
2022-09-10T23:31:41.749Z,25.50
2022-09-10T23:34:14.877Z,25.50
2022-09-10T23:36:47.889Z,25.40
2022-09-10T23:39:22.653Z,25.40
2022-09-10T23:41:55.595Z,25.40
2022-09-10T23:44:27.300Z,25.40
2022-09-10T23:46:58.766Z,25.30
2022-09-10T23:49:29.499Z,25.30
2022-09-10T23:52:00.230Z,25.30
2022-09-10T23:54:31.454Z,25.30
2022-09-10T23:57:03.538Z,25.30
2022-09-10T23:59:34.498Z,25.30
